createdAt,value
2018-06-13T00:01:06.548Z,14.10
2018-06-13T00:06:01.542Z,14.20
2018-06-13T00:08:29.273Z,14.20
2018-06-13T00:10:56.765Z,14.30
2018-06-13T00:13:24.279Z,14.30
2018-06-13T00:15:51.781Z,14.30
2018-06-13T00:18:19.301Z,14.40
2018-06-13T00:20:46.792Z,14.40
2018-06-13T00:23:14.325Z,14.50
2018-06-13T00:25:41.817Z,14.50
2018-06-13T00:28:09.353Z,14.60
2018-06-13T00:30:36.867Z,14.50
2018-06-13T00:35:38.482Z,14.60
2018-06-13T00:38:06.047Z,14.70
2018-06-13T00:40:33.621Z,14.70
2018-06-13T00:43:01.225Z,14.70
2018-06-13T00:45:28.723Z,14.70
2018-06-13T00:47:56.253Z,14.60
2018-06-13T00:50:23.766Z,14.60
2018-06-13T00:52:51.301Z,14.60
2018-06-13T00:55:18.974Z,14.60
2018-06-13T00:57:46.541Z,14.60
2018-06-13T01:00:14.065Z,14.70
2018-06-13T01:02:41.624Z,14.60
2018-06-13T01:05:09.131Z,14.60
2018-06-13T01:07:36.680Z,14.60
2018-06-13T01:10:04.305Z,14.50
2018-06-13T01:12:31.821Z,14.50
2018-06-13T01:14:59.338Z,14.50
2018-06-13T01:17:26.849Z,14.40
2018-06-13T01:19:54.396Z,14.40
2018-06-13T01:22:21.889Z,14.50
2018-06-13T01:24:49.413Z,14.40
2018-06-13T01:27:16.934Z,14.50
2018-06-13T01:29:44.455Z,14.40
2018-06-13T01:32:12.002Z,14.40
2018-06-13T01:34:39.784Z,14.40
2018-06-13T01:37:07.286Z,14.40
2018-06-13T01:39:34.858Z,14.30
2018-06-13T01:42:02.398Z,14.30
2018-06-13T01:44:29.932Z,14.30
2018-06-13T01:46:57.451Z,14.30
2018-06-13T01:49:25.043Z,14.30
2018-06-13T01:51:52.538Z,14.30
2018-06-13T01:54:20.105Z,14.30
2018-06-13T01:56:47.627Z,14.30
2018-06-13T01:59:15.213Z,14.30
2018-06-13T02:04:17.060Z,14.20
2018-06-13T02:06:44.574Z,14.30
2018-06-13T02:09:12.080Z,14.20
2018-06-13T02:11:39.580Z,14.30
2018-06-13T02:14:07.065Z,14.30
2018-06-13T02:16:34.597Z,14.30
2018-06-13T02:19:02.149Z,14.30
2018-06-13T02:21:29.669Z,14.30
2018-06-13T02:23:57.177Z,14.30
2018-06-13T02:26:24.684Z,14.30
2018-06-13T02:28:52.280Z,14.30
2018-06-13T02:31:19.801Z,14.20
2018-06-13T02:33:47.289Z,14.20
2018-06-13T02:38:42.226Z,14.10
2018-06-13T02:41:09.761Z,14.10
2018-06-13T02:43:37.270Z,14.20
2018-06-13T02:46:04.825Z,14.10
2018-06-13T02:48:32.319Z,14.20
2018-06-13T02:53:27.413Z,14.10
2018-06-13T02:55:54.925Z,14.10
2018-06-13T02:58:22.416Z,14.10
2018-06-13T03:00:49.951Z,14.10
2018-06-13T03:03:17.474Z,14.00
2018-06-13T03:05:45.018Z,14.10
2018-06-13T03:08:12.559Z,14.10
2018-06-13T03:10:40.086Z,14.10
2018-06-13T03:13:07.565Z,14.00
2018-06-13T03:15:41.906Z,14.10
2018-06-13T03:18:09.521Z,14.00
2018-06-13T03:20:37.005Z,14.00
2018-06-13T03:23:04.577Z,14.00
2018-06-13T03:25:32.094Z,14.00
2018-06-13T03:27:59.594Z,14.00
2018-06-13T03:30:27.115Z,14.00
2018-06-13T03:32:54.648Z,14.00
2018-06-13T03:35:22.153Z,14.10
2018-06-13T03:37:49.694Z,14.10
2018-06-13T03:40:17.215Z,14.10
2018-06-13T03:42:45.293Z,14.10
2018-06-13T03:47:40.313Z,14.00
2018-06-13T03:50:08.503Z,14.00
2018-06-13T03:52:36.021Z,14.10
2018-06-13T03:55:03.605Z,14.10
2018-06-13T03:57:31.122Z,14.00
2018-06-13T03:59:58.637Z,14.10
2018-06-13T04:02:26.161Z,14.10
2018-06-13T04:04:53.701Z,14.10
2018-06-13T04:07:21.235Z,14.00
2018-06-13T04:09:48.740Z,14.00
2018-06-13T04:12:16.249Z,14.10
2018-06-13T04:14:43.772Z,14.10
2018-06-13T04:17:11.303Z,14.00
2018-06-13T04:19:39.741Z,14.00
2018-06-13T04:22:07.430Z,14.00
2018-06-13T04:24:34.945Z,14.10
2018-06-13T04:27:02.570Z,14.00
2018-06-13T04:31:57.537Z,14.00
2018-06-13T04:36:59.209Z,14.00
2018-06-13T04:39:26.747Z,14.00
2018-06-13T04:41:54.328Z,13.90
2018-06-13T04:44:21.857Z,14.00
2018-06-13T04:46:49.369Z,14.00
2018-06-13T04:49:16.925Z,14.00
2018-06-13T04:51:44.446Z,13.90
2018-06-13T04:54:11.984Z,14.00
2018-06-13T04:56:39.498Z,14.10
2018-06-13T04:59:07.016Z,14.20
2018-06-13T05:01:34.521Z,14.10
2018-06-13T05:04:02.053Z,14.20
2018-06-13T05:06:29.564Z,14.30
2018-06-13T05:08:57.076Z,14.20
2018-06-13T05:11:24.608Z,14.30
2018-06-13T05:13:52.124Z,14.30
2018-06-13T05:16:19.654Z,14.40
2018-06-13T05:18:47.173Z,14.40
2018-06-13T05:21:14.678Z,14.40
2018-06-13T05:23:42.209Z,14.40
2018-06-13T05:26:09.721Z,14.50
2018-06-13T05:28:37.260Z,14.40
2018-06-13T05:31:04.778Z,14.50
2018-06-13T05:33:32.286Z,14.50
2018-06-13T05:35:59.812Z,14.50
2018-06-13T05:38:27.365Z,14.60
2018-06-13T05:40:54.891Z,14.60
2018-06-13T05:43:22.394Z,14.70
2018-06-13T05:45:49.939Z,14.70
2018-06-13T05:48:17.452Z,14.70
2018-06-13T05:50:44.991Z,14.70
2018-06-13T05:53:12.514Z,14.80
2018-06-13T05:55:40.046Z,14.80
2018-06-13T05:58:07.569Z,14.80
2018-06-13T06:00:35.129Z,14.90
2018-06-13T06:03:02.681Z,14.90
2018-06-13T06:05:30.210Z,15.00
2018-06-13T06:07:57.710Z,15.10
2018-06-13T06:10:25.243Z,15.20
2018-06-13T06:12:52.750Z,15.20
2018-06-13T06:15:20.241Z,15.20
2018-06-13T06:17:47.804Z,15.20
2018-06-13T06:20:15.295Z,15.30
2018-06-13T06:22:42.825Z,15.30
2018-06-13T06:25:10.366Z,15.30
2018-06-13T06:27:37.895Z,15.40
2018-06-13T06:30:05.469Z,15.40
2018-06-13T06:32:33.003Z,15.40
2018-06-13T06:35:00.752Z,15.50
2018-06-13T06:37:28.285Z,15.50
2018-06-13T06:39:55.809Z,15.40
2018-06-13T06:42:23.358Z,15.30
2018-06-13T06:44:50.896Z,15.20
2018-06-13T06:47:18.423Z,15.20
2018-06-13T06:49:45.989Z,15.10
2018-06-13T06:52:13.465Z,15.10
2018-06-13T06:54:40.969Z,15.20
2018-06-13T06:57:08.521Z,15.30
2018-06-13T06:59:36.057Z,15.40
2018-06-13T07:02:03.597Z,15.50
2018-06-13T07:04:31.112Z,15.50
2018-06-13T07:06:58.609Z,15.40
2018-06-13T07:09:26.190Z,15.40
2018-06-13T07:11:53.714Z,15.50
2018-06-13T07:14:21.243Z,15.50
2018-06-13T07:16:48.762Z,15.60
2018-06-13T07:19:16.285Z,15.60
2018-06-13T07:21:43.797Z,15.70
2018-06-13T07:24:11.335Z,15.70
2018-06-13T07:26:38.907Z,15.70
2018-06-13T07:29:06.426Z,15.80
2018-06-13T07:31:33.921Z,15.70
2018-06-13T07:34:01.487Z,15.80
2018-06-13T07:36:29.004Z,15.90
2018-06-13T07:41:24.002Z,16.10
2018-06-13T07:43:51.514Z,16.20
2018-06-13T07:46:19.072Z,16.40
2018-06-13T07:48:47.235Z,16.50
2018-06-13T07:51:14.767Z,16.60
2018-06-13T07:53:42.277Z,16.50
2018-06-13T07:56:09.886Z,16.50
2018-06-13T08:01:04.849Z,16.70
2018-06-13T08:03:32.356Z,16.70
2018-06-13T08:05:59.897Z,16.80
2018-06-13T08:08:27.420Z,16.90
2018-06-13T08:10:54.981Z,16.70
2018-06-13T08:13:22.576Z,16.60
2018-06-13T08:15:50.174Z,16.30
2018-06-13T08:18:17.697Z,16.10
2018-06-13T08:20:45.223Z,15.80
2018-06-13T08:23:12.756Z,15.80
2018-06-13T08:25:40.273Z,15.70
2018-06-13T08:28:14.406Z,15.60
2018-06-13T08:30:41.963Z,15.50
2018-06-13T08:33:09.517Z,15.50
2018-06-13T08:35:37.065Z,15.60
2018-06-13T08:38:04.673Z,15.70
2018-06-13T08:40:32.230Z,15.80
2018-06-13T08:42:59.801Z,16.00
2018-06-13T08:45:27.342Z,16.10
2018-06-13T08:47:54.857Z,16.10
2018-06-13T08:50:22.357Z,16.20
2018-06-13T08:52:49.880Z,16.20
2018-06-13T08:55:17.398Z,16.20
2018-06-13T08:57:44.933Z,16.30
2018-06-13T09:00:12.453Z,16.30
2018-06-13T09:02:39.990Z,16.20
2018-06-13T09:05:07.517Z,16.30
2018-06-13T09:07:35.034Z,16.40
2018-06-13T09:10:02.577Z,16.40
2018-06-13T09:12:30.131Z,16.30
2018-06-13T09:14:57.677Z,16.20
2018-06-13T09:17:25.173Z,16.10
2018-06-13T09:19:52.689Z,16.10
2018-06-13T09:22:20.236Z,16.10
2018-06-13T09:24:47.737Z,16.10
2018-06-13T09:27:15.279Z,16.00
2018-06-13T09:29:42.805Z,15.90
2018-06-13T09:32:10.329Z,15.80
2018-06-13T09:34:37.818Z,15.80
2018-06-13T09:37:05.386Z,15.70
2018-06-13T09:39:32.886Z,15.80
2018-06-13T09:42:00.415Z,16.00
2018-06-13T09:44:28.545Z,16.00
2018-06-13T09:46:56.052Z,16.10
2018-06-13T09:49:23.630Z,16.20
2018-06-13T09:51:51.146Z,16.50
2018-06-13T09:54:18.679Z,16.60
2018-06-13T09:56:46.340Z,16.90
2018-06-13T09:59:17.499Z,16.90
2018-06-13T10:01:48.166Z,16.90
2018-06-13T10:04:15.680Z,16.80
2018-06-13T10:06:43.201Z,16.90
2018-06-13T10:11:38.213Z,16.60
2018-06-13T10:14:05.841Z,16.50
2018-06-13T10:16:33.374Z,16.30
2018-06-13T10:19:00.905Z,16.10
2018-06-13T10:21:28.692Z,16.20
2018-06-13T10:23:56.379Z,16.30
2018-06-13T10:26:24.374Z,16.20
2018-06-13T10:28:51.988Z,16.20
2018-06-13T10:31:19.483Z,16.30
2018-06-13T10:33:47.046Z,16.40
2018-06-13T10:36:14.601Z,16.60
2018-06-13T10:38:42.184Z,16.80
2018-06-13T10:41:09.752Z,16.70
2018-06-13T10:43:37.301Z,16.80
2018-06-13T10:46:04.864Z,17.00
2018-06-13T10:48:32.426Z,17.10
2018-06-13T10:51:00.114Z,17.30
2018-06-13T10:53:28.052Z,17.20
2018-06-13T10:55:55.661Z,17.00
2018-06-13T10:58:23.217Z,17.10
2018-06-13T11:00:50.768Z,17.00
2018-06-13T11:03:18.293Z,16.90
2018-06-13T11:05:45.817Z,16.90
2018-06-13T11:08:13.354Z,16.70
2018-06-13T11:10:40.912Z,16.60
2018-06-13T11:13:08.437Z,16.40
2018-06-13T11:15:35.955Z,16.70
2018-06-13T11:18:03.534Z,16.70
2018-06-13T11:20:31.189Z,16.80
2018-06-13T11:22:58.710Z,16.70
2018-06-13T11:25:26.241Z,16.60
2018-06-13T11:27:53.765Z,16.70
2018-06-13T11:30:21.261Z,16.70
2018-06-13T11:32:48.817Z,16.70
2018-06-13T11:35:16.396Z,16.50
2018-06-13T11:37:43.977Z,16.50
2018-06-13T11:40:11.491Z,16.30
2018-06-13T11:42:39.030Z,16.30
2018-06-13T11:45:06.634Z,16.40
2018-06-13T11:47:34.194Z,16.60
2018-06-13T11:50:01.702Z,16.70
2018-06-13T11:52:29.264Z,17.00
2018-06-13T11:54:56.771Z,17.10
2018-06-13T11:57:24.313Z,17.40
2018-06-13T11:59:51.891Z,17.50
2018-06-13T12:02:19.414Z,17.60
2018-06-13T12:04:46.914Z,17.60
2018-06-13T12:07:14.457Z,17.70
2018-06-13T12:09:41.981Z,17.80
2018-06-13T12:12:10.324Z,17.70
2018-06-13T12:14:37.858Z,17.70
2018-06-13T12:17:05.454Z,17.60
2018-06-13T12:19:32.999Z,17.70
2018-06-13T12:22:00.517Z,17.80
2018-06-13T12:24:28.204Z,17.90
2018-06-13T12:26:55.794Z,17.70
2018-06-13T12:29:23.361Z,17.60
2018-06-13T12:31:51.561Z,17.50
2018-06-13T12:34:19.415Z,17.50
2018-06-13T12:36:46.900Z,17.70
2018-06-13T12:39:14.441Z,18.00
2018-06-13T12:41:41.965Z,18.20
2018-06-13T12:44:09.505Z,18.40
2018-06-13T12:46:37.121Z,18.60
2018-06-13T12:49:04.831Z,19.00
2018-06-13T12:51:32.349Z,19.20
2018-06-13T12:54:00.419Z,19.20
2018-06-13T12:56:27.967Z,18.70
2018-06-13T12:58:55.654Z,17.90
2018-06-13T13:01:23.154Z,17.60
2018-06-13T13:03:50.685Z,17.70
2018-06-13T13:06:18.397Z,17.50
2018-06-13T13:08:45.913Z,17.60
2018-06-13T13:11:13.511Z,17.90
2018-06-13T13:13:40.984Z,18.10
2018-06-13T13:16:08.521Z,18.20
2018-06-13T13:18:36.070Z,18.20
2018-06-13T13:21:03.662Z,18.20
2018-06-13T13:23:31.169Z,18.20
2018-06-13T13:26:05.308Z,18.40
2018-06-13T13:31:00.468Z,18.90
2018-06-13T13:33:27.978Z,18.90
2018-06-13T13:35:55.619Z,18.90
2018-06-13T13:38:23.100Z,18.30
2018-06-13T13:40:50.650Z,17.90
2018-06-13T13:43:18.178Z,17.70
2018-06-13T13:45:45.796Z,17.60
2018-06-13T13:48:13.558Z,17.60
2018-06-13T13:50:41.116Z,17.70
2018-06-13T13:53:08.709Z,17.70
2018-06-13T13:55:36.236Z,18.00
2018-06-13T13:58:03.965Z,18.30
2018-06-13T14:00:31.479Z,18.70
2018-06-13T14:02:58.989Z,18.90
2018-06-13T14:05:26.553Z,18.90
2018-06-13T14:07:54.119Z,18.60
2018-06-13T14:10:21.662Z,18.20
2018-06-13T14:12:49.270Z,18.00
2018-06-13T14:15:16.790Z,17.70
2018-06-13T14:17:44.315Z,17.60
2018-06-13T14:20:11.865Z,17.70
2018-06-13T14:22:39.477Z,17.90
2018-06-13T14:25:06.969Z,17.90
2018-06-13T14:27:34.517Z,18.00
2018-06-13T14:30:02.135Z,18.10
2018-06-13T14:32:29.657Z,18.30
2018-06-13T14:34:57.249Z,18.40
2018-06-13T14:37:24.868Z,18.30
2018-06-13T14:39:52.373Z,18.30
2018-06-13T14:42:19.947Z,18.40
2018-06-13T14:44:47.530Z,18.40
2018-06-13T14:47:15.066Z,18.50
2018-06-13T14:49:42.581Z,18.60
2018-06-13T14:52:10.146Z,18.50
2018-06-13T14:54:37.653Z,18.20
2018-06-13T14:57:05.356Z,18.00
2018-06-13T14:59:32.892Z,17.70
2018-06-13T15:02:00.493Z,17.70
2018-06-13T15:04:31.979Z,17.90
2018-06-13T15:06:59.550Z,18.30
2018-06-13T15:09:27.074Z,18.70
2018-06-13T15:14:22.068Z,19.10
2018-06-13T15:16:49.601Z,19.20
2018-06-13T15:19:17.377Z,19.00
2018-06-13T15:21:44.901Z,19.00
2018-06-13T15:24:12.531Z,18.90
2018-06-13T15:26:40.097Z,18.80
2018-06-13T15:29:07.648Z,19.00
2018-06-13T15:34:02.691Z,19.00
2018-06-13T15:36:30.272Z,18.90
2018-06-13T15:38:57.811Z,19.00
2018-06-13T15:41:25.403Z,19.10
2018-06-13T15:43:52.976Z,19.40
2018-06-13T15:46:21.077Z,19.40
2018-06-13T15:48:48.632Z,19.20
2018-06-13T15:51:16.189Z,19.20
2018-06-13T15:53:50.390Z,18.50
2018-06-13T15:56:17.911Z,18.30
2018-06-13T15:58:45.494Z,18.10
2018-06-13T16:01:13.087Z,17.90
2018-06-13T16:03:40.698Z,17.70
2018-06-13T16:06:08.442Z,17.60
2018-06-13T16:08:36.194Z,17.50
2018-06-13T16:11:03.732Z,17.60
2018-06-13T16:13:31.241Z,17.60
2018-06-13T16:15:58.790Z,17.60
2018-06-13T16:18:26.374Z,17.60
2018-06-13T16:20:53.928Z,17.60
2018-06-13T16:23:21.459Z,17.60
2018-06-13T16:25:48.985Z,17.60
2018-06-13T16:28:16.545Z,17.50
2018-06-13T16:30:44.057Z,17.60
2018-06-13T16:33:11.621Z,17.60
2018-06-13T16:35:39.189Z,17.60
2018-06-13T16:38:06.816Z,17.80
2018-06-13T16:40:34.377Z,17.90
2018-06-13T16:43:01.904Z,17.90
2018-06-13T16:45:29.697Z,18.10
2018-06-13T16:47:57.476Z,18.00
2018-06-13T16:50:36.298Z,17.90
2018-06-13T16:53:08.970Z,17.90
2018-06-13T16:55:36.561Z,17.80
2018-06-13T16:58:04.221Z,17.60
2018-06-13T17:00:31.764Z,17.60
2018-06-13T17:02:59.322Z,17.50
2018-06-13T17:05:26.933Z,17.40
2018-06-13T17:07:54.453Z,17.50
2018-06-13T17:10:21.955Z,17.40
2018-06-13T17:12:49.514Z,17.50
2018-06-13T17:15:17.037Z,17.50
2018-06-13T17:17:51.242Z,17.50
2018-06-13T17:20:18.749Z,17.50
2018-06-13T17:22:46.536Z,17.50
2018-06-13T17:25:14.046Z,17.30
2018-06-13T17:30:09.393Z,17.20
2018-06-13T17:32:37.002Z,17.20
2018-06-13T17:35:05.090Z,17.20
2018-06-13T17:37:33.007Z,17.30
2018-06-13T17:40:00.551Z,17.30
2018-06-13T17:42:28.158Z,17.20
2018-06-13T17:44:55.891Z,17.20
2018-06-13T17:47:23.498Z,17.30
2018-06-13T17:49:51.333Z,17.40
2018-06-13T17:52:18.891Z,17.50
2018-06-13T17:54:46.440Z,17.50
2018-06-13T17:57:14.315Z,17.40
2018-06-13T17:59:41.843Z,17.40
2018-06-13T18:02:09.503Z,17.50
2018-06-13T18:04:37.335Z,17.30
2018-06-13T18:07:04.954Z,17.30
2018-06-13T18:09:32.817Z,17.30
2018-06-13T18:12:00.599Z,17.30
2018-06-13T18:14:28.429Z,17.40
2018-06-13T18:16:56.233Z,17.40
2018-06-13T18:19:23.916Z,17.30
2018-06-13T18:21:51.786Z,17.40
2018-06-13T18:24:19.482Z,17.50
2018-06-13T18:26:47.161Z,17.40
2018-06-13T18:29:14.879Z,17.20
2018-06-13T18:31:43.404Z,17.20
2018-06-13T18:34:11.201Z,17.10
2018-06-13T18:36:38.753Z,17.30
2018-06-13T18:39:08.418Z,17.50
2018-06-13T18:41:36.281Z,17.60
2018-06-13T18:44:04.018Z,17.60
2018-06-13T18:48:59.269Z,17.70
2018-06-13T18:51:26.868Z,18.00
2018-06-13T18:53:54.433Z,18.40
2018-06-13T18:56:28.584Z,18.60
2018-06-13T18:58:56.266Z,19.10
2018-06-13T19:01:24.434Z,19.60
2018-06-13T19:03:52.072Z,19.90
2018-06-13T19:06:19.637Z,20.00
2018-06-13T19:08:47.234Z,20.00
2018-06-13T19:11:14.896Z,19.80
2018-06-13T19:13:42.408Z,19.70
2018-06-13T19:16:10.057Z,19.60
2018-06-13T19:18:37.633Z,19.50
2018-06-13T19:21:05.520Z,19.40
2018-06-13T19:23:33.082Z,19.20
2018-06-13T19:26:00.677Z,19.20
2018-06-13T19:28:28.303Z,19.10
2018-06-13T19:30:56.134Z,19.00
2018-06-13T19:33:23.775Z,18.90
2018-06-13T19:35:51.350Z,18.60
2018-06-13T19:38:19.000Z,18.30
2018-06-13T19:40:46.538Z,18.00
2018-06-13T19:43:19.773Z,17.70
2018-06-13T19:45:47.333Z,17.50
2018-06-13T19:48:20.691Z,17.30
2018-06-13T19:50:48.329Z,17.20
2018-06-13T19:53:21.608Z,17.10
2018-06-13T19:55:54.722Z,17.10
2018-06-13T19:58:22.517Z,17.00
2018-06-13T20:00:50.042Z,17.00
2018-06-13T20:03:23.259Z,16.90
2018-06-13T20:05:50.877Z,16.90
2018-06-13T20:08:18.389Z,16.80
2018-06-13T20:10:45.897Z,16.80
2018-06-13T20:13:18.998Z,16.70
2018-06-13T20:15:52.586Z,16.60
2018-06-13T20:18:25.777Z,16.70
2018-06-13T20:20:54.974Z,16.60
2018-06-13T20:23:22.529Z,16.60
2018-06-13T20:25:55.753Z,16.60
2018-06-13T20:28:28.855Z,16.60
2018-06-13T20:31:02.007Z,16.50
2018-06-13T20:33:29.571Z,16.50
2018-06-13T20:35:57.069Z,16.40
2018-06-13T20:38:24.580Z,16.30
2018-06-13T20:40:52.081Z,16.30
2018-06-13T20:43:19.673Z,16.20
2018-06-13T20:45:47.177Z,16.00
2018-06-13T20:48:14.712Z,16.00
2018-06-13T20:50:42.267Z,15.90
2018-06-13T20:53:09.783Z,15.80
2018-06-13T20:55:37.390Z,15.70
2018-06-13T20:58:04.996Z,15.60
2018-06-13T21:00:32.528Z,15.50
2018-06-13T21:03:00.167Z,15.40
2018-06-13T21:05:27.773Z,15.30
2018-06-13T21:07:55.701Z,15.20
2018-06-13T21:10:23.247Z,15.20
2018-06-13T21:12:50.757Z,15.10
2018-06-13T21:15:18.286Z,15.10
2018-06-13T21:17:45.825Z,15.10
2018-06-13T21:20:13.444Z,15.00
2018-06-13T21:22:40.969Z,14.90
2018-06-13T21:25:08.531Z,14.80
2018-06-13T21:27:36.073Z,14.80
2018-06-13T21:30:04.157Z,14.80
2018-06-13T21:32:31.691Z,14.70
2018-06-13T21:34:59.292Z,14.60
2018-06-13T21:37:26.798Z,14.60
2018-06-13T21:39:54.353Z,14.60
2018-06-13T21:42:21.945Z,14.60
2018-06-13T21:44:49.597Z,14.60
2018-06-13T21:47:17.428Z,14.60
2018-06-13T21:49:44.993Z,14.50
2018-06-13T21:52:12.574Z,14.50
2018-06-13T21:54:40.096Z,14.40
2018-06-13T21:57:07.633Z,14.40
2018-06-13T22:02:02.712Z,14.30
2018-06-13T22:04:30.227Z,14.30
2018-06-13T22:06:57.802Z,14.30
2018-06-13T22:09:25.319Z,14.30
2018-06-13T22:11:53.997Z,14.20
2018-06-13T22:14:23.257Z,14.20
2018-06-13T22:16:51.509Z,14.20
2018-06-13T22:19:19.457Z,14.20
2018-06-13T22:21:47.153Z,14.10
2018-06-13T22:24:14.683Z,14.10
2018-06-13T22:26:42.298Z,14.10
2018-06-13T22:29:09.809Z,14.10
2018-06-13T22:31:37.448Z,14.00
2018-06-13T22:34:04.942Z,14.00
2018-06-13T22:36:32.452Z,14.00
2018-06-13T22:38:59.989Z,13.90
2018-06-13T22:41:27.496Z,13.90
2018-06-13T22:43:55.038Z,13.90
2018-06-13T22:46:22.599Z,13.80
2018-06-13T22:48:50.225Z,13.80
2018-06-13T22:51:17.783Z,13.80
2018-06-13T22:53:45.344Z,13.80
2018-06-13T22:56:12.870Z,13.70
2018-06-13T22:58:40.404Z,13.60
2018-06-13T23:01:09.159Z,13.60
2018-06-13T23:03:36.706Z,13.60
2018-06-13T23:06:06.370Z,13.50
2018-06-13T23:08:34.709Z,13.50
2018-06-13T23:11:02.254Z,13.50
2018-06-13T23:13:29.952Z,13.50
2018-06-13T23:15:57.474Z,13.50
2018-06-13T23:18:26.032Z,13.40
2018-06-13T23:20:53.517Z,13.50
2018-06-13T23:23:21.662Z,13.40
2018-06-13T23:25:49.521Z,13.40
2018-06-13T23:28:17.073Z,13.40
2018-06-13T23:30:44.574Z,13.30
2018-06-13T23:33:12.130Z,13.30
2018-06-13T23:35:39.629Z,13.40
2018-06-13T23:38:07.133Z,13.50
2018-06-13T23:40:35.105Z,13.30
2018-06-13T23:43:02.809Z,13.30
2018-06-13T23:45:30.506Z,13.10
2018-06-13T23:47:57.996Z,13.00
2018-06-13T23:50:25.533Z,13.00
2018-06-13T23:52:53.041Z,13.10
2018-06-13T23:55:20.640Z,13.00
2018-06-13T23:57:48.148Z,13.00
